LXJ420 KRSW-KEYW
Flight info
| Callsign | LXJ420 |
|---|---|
| Flight time | 0h 30m |
| Altitude | 21000 |
| Route | GOODY KARTR KRAKN1 |
| Aircraft | C25C/M-SDE2E3FGHRWXY/LB1 |
Departure
| Time | 2026-05-05 14:38 |
|---|---|
| Airport | Southwest Florida International Airport (KRSW) |
Arrival
| Time | 2026-05-05 15:09 |
|---|---|
| Airport | Key West International Airport (KEYW) |
| Time | Latitude | Longitude | Altitude | Speed | Heading |
|---|---|---|---|---|---|
| 2026-05-05 14:22 | 26.53665 | -81.76262 | 38 ft | 0 kts | 145° |
| 2026-05-05 14:33 | 26.53665 | -81.76261 | 38 ft | 0 kts | 144° |
| 2026-05-05 14:34 | 26.53663 | -81.76260 | 38 ft | 3 kts | 144° |
| 2026-05-05 14:34 | 26.53610 | -81.76281 | 38 ft | 15 kts | 222° |
| 2026-05-05 14:34 | 26.53495 | -81.76365 | 38 ft | 22 kts | 189° |
| 2026-05-05 14:34 | 26.53366 | -81.76289 | 38 ft | 21 kts | 142° |
| 2026-05-05 14:35 | 26.53252 | -81.76287 | 38 ft | 19 kts | 234° |
| 2026-05-05 14:35 | 26.53173 | -81.76410 | 37 ft | 20 kts | 234° |
| 2026-05-05 14:35 | 26.53090 | -81.76534 | 37 ft | 20 kts | 234° |
| 2026-05-05 14:35 | 26.53009 | -81.76659 | 37 ft | 20 kts | 234° |
| 2026-05-05 14:36 | 26.52929 | -81.76784 | 38 ft | 20 kts | 234° |
| 2026-05-05 14:36 | 26.52848 | -81.76907 | 38 ft | 20 kts | 234° |
| 2026-05-05 14:36 | 26.52767 | -81.77023 | 38 ft | 14 kts | 220° |
| 2026-05-05 14:36 | 26.52737 | -81.77038 | 38 ft | 0 kts | 191° |
| 2026-05-05 14:38 | 26.52692 | -81.77018 | 38 ft | 17 kts | 139° |
| 2026-05-05 14:38 | 26.52708 | -81.76910 | 38 ft | 29 kts | 54° |
| 2026-05-05 14:38 | 26.53031 | -81.76415 | 89 ft | 123 kts | 54° |
| 2026-05-05 14:38 | 26.53617 | -81.75577 | 902 ft | 133 kts | 51° |
| 2026-05-05 14:39 | 26.54071 | -81.74680 | 2125 ft | 145 kts | 89° |
| 2026-05-05 14:39 | 26.53659 | -81.73558 | 3091 ft | 175 kts | 117° |
| 2026-05-05 14:39 | 26.53099 | -81.72272 | 3810 ft | 189 kts | 113° |
| 2026-05-05 14:39 | 26.52532 | -81.70843 | 4010 ft | 221 kts | 115° |
| 2026-05-05 14:40 | 26.51846 | -81.69150 | 4014 ft | 257 kts | 113° |
| 2026-05-05 14:40 | 26.51098 | -81.67252 | 4226 ft | 266 kts | 114° |
| 2026-05-05 14:40 | 26.50314 | -81.65326 | 5026 ft | 273 kts | 114° |
| 2026-05-05 14:40 | 26.49569 | -81.63445 | 6679 ft | 259 kts | 114° |
| 2026-05-05 14:41 | 26.48747 | -81.61606 | 7645 ft | 273 kts | 128° |
| 2026-05-05 14:41 | 26.47193 | -81.60456 | 8753 ft | 273 kts | 167° |
| 2026-05-05 14:41 | 26.45317 | -81.60499 | 9718 ft | 271 kts | 195° |
| 2026-05-05 14:41 | 26.43436 | -81.61024 | 10005 ft | 294 kts | 195° |
| 2026-05-05 14:42 | 26.41332 | -81.61408 | 10011 ft | 327 kts | 187° |
| 2026-05-05 14:42 | 26.38998 | -81.61453 | 10008 ft | 336 kts | 181° |
| 2026-05-05 14:42 | 26.36671 | -81.61439 | 10002 ft | 332 kts | 184° |
| 2026-05-05 14:42 | 26.34370 | -81.61621 | 10005 ft | 329 kts | 187° |
| 2026-05-05 14:43 | 26.32095 | -81.61781 | 9998 ft | 328 kts | 184° |
| 2026-05-05 14:43 | 26.29814 | -81.61830 | 9996 ft | 327 kts | 184° |
| 2026-05-05 14:43 | 26.27548 | -81.61935 | 9996 ft | 325 kts | 185° |
| 2026-05-05 14:43 | 26.25332 | -81.62085 | 10438 ft | 308 kts | 186° |
| 2026-05-05 14:44 | 26.23268 | -81.62177 | 11814 ft | 287 kts | 185° |
| 2026-05-05 14:44 | 26.21264 | -81.62258 | 12865 ft | 292 kts | 187° |
| 2026-05-05 14:44 | 26.19220 | -81.62376 | 13843 ft | 296 kts | 187° |
| 2026-05-05 14:44 | 26.17140 | -81.62474 | 14674 ft | 302 kts | 187° |
| 2026-05-05 14:45 | 26.15012 | -81.62579 | 15473 ft | 308 kts | 188° |
| 2026-05-05 14:45 | 26.12847 | -81.62694 | 16264 ft | 315 kts | 188° |
| 2026-05-05 14:45 | 26.10661 | -81.62791 | 17027 ft | 321 kts | 188° |
| 2026-05-05 14:45 | 26.08408 | -81.62904 | 17809 ft | 327 kts | 189° |
| 2026-05-05 14:46 | 26.06104 | -81.63023 | 18535 ft | 333 kts | 189° |
| 2026-05-05 14:46 | 26.03772 | -81.63130 | 19227 ft | 337 kts | 189° |
| 2026-05-05 14:46 | 26.01415 | -81.63248 | 19955 ft | 340 kts | 189° |
| 2026-05-05 14:46 | 25.99038 | -81.63367 | 20659 ft | 344 kts | 189° |
| 2026-05-05 14:47 | 25.96594 | -81.63260 | 21040 ft | 368 kts | 175° |
| 2026-05-05 14:47 | 25.94004 | -81.62559 | 21058 ft | 396 kts | 170° |
| 2026-05-05 14:47 | 25.91251 | -81.61782 | 21065 ft | 418 kts | 172° |
| 2026-05-05 14:47 | 25.88347 | -81.61089 | 21064 ft | 436 kts | 173° |
| 2026-05-05 14:48 | 25.85380 | -81.60371 | 21061 ft | 441 kts | 172° |
| 2026-05-05 14:48 | 25.82403 | -81.59561 | 21065 ft | 440 kts | 171° |
| 2026-05-05 14:48 | 25.79429 | -81.58794 | 21066 ft | 439 kts | 172° |
| 2026-05-05 14:48 | 25.76444 | -81.58084 | 21067 ft | 438 kts | 172° |
| 2026-05-05 14:49 | 25.73463 | -81.57326 | 21061 ft | 439 kts | 171° |
| 2026-05-05 14:49 | 25.70489 | -81.56539 | 21065 ft | 439 kts | 172° |
| 2026-05-05 14:49 | 25.67513 | -81.55801 | 21064 ft | 438 kts | 172° |
| 2026-05-05 14:49 | 25.64535 | -81.55069 | 21061 ft | 438 kts | 172° |
| 2026-05-05 14:50 | 25.61561 | -81.54298 | 21060 ft | 438 kts | 171° |
| 2026-05-05 14:50 | 25.58592 | -81.53541 | 21058 ft | 438 kts | 172° |
| 2026-05-05 14:50 | 25.55618 | -81.52810 | 21056 ft | 438 kts | 172° |
| 2026-05-05 14:50 | 25.52658 | -81.52072 | 20692 ft | 441 kts | 173° |
| 2026-05-05 14:51 | 25.49670 | -81.51887 | 20122 ft | 413 kts | 192° |
| 2026-05-05 14:51 | 25.46977 | -81.52521 | 19595 ft | 391 kts | 205° |
| 2026-05-05 14:51 | 25.44520 | -81.53659 | 19090 ft | 377 kts | 210° |
| 2026-05-05 14:51 | 25.42112 | -81.54760 | 18600 ft | 372 kts | 208° |
| 2026-05-05 14:52 | 25.39724 | -81.55828 | 18078 ft | 367 kts | 209° |
| 2026-05-05 14:52 | 25.37388 | -81.56947 | 17582 ft | 364 kts | 209° |
| 2026-05-05 14:52 | 25.35059 | -81.58041 | 17065 ft | 362 kts | 208° |
| 2026-05-05 14:52 | 25.32736 | -81.59084 | 16586 ft | 359 kts | 207° |
| 2026-05-05 14:53 | 25.30440 | -81.60150 | 16111 ft | 356 kts | 208° |
| 2026-05-05 14:53 | 25.28191 | -81.61209 | 15648 ft | 354 kts | 207° |
| 2026-05-05 14:53 | 25.25944 | -81.62230 | 15187 ft | 345 kts | 207° |
| 2026-05-05 14:53 | 25.23763 | -81.63233 | 14737 ft | 335 kts | 207° |
| 2026-05-05 14:54 | 25.21650 | -81.64248 | 14297 ft | 326 kts | 210° |
| 2026-05-05 14:54 | 25.19673 | -81.65418 | 13855 ft | 318 kts | 214° |
| 2026-05-05 14:54 | 25.17765 | -81.66614 | 13368 ft | 313 kts | 212° |
| 2026-05-05 14:54 | 25.15830 | -81.67653 | 12893 ft | 306 kts | 209° |
| 2026-05-05 14:55 | 25.13948 | -81.68674 | 12419 ft | 298 kts | 211° |
| 2026-05-05 14:55 | 25.12136 | -81.69743 | 11965 ft | 293 kts | 212° |
| 2026-05-05 14:55 | 25.10333 | -81.70749 | 11602 ft | 286 kts | 210° |
| 2026-05-05 14:55 | 25.08573 | -81.71717 | 11234 ft | 280 kts | 211° |
| 2026-05-05 14:56 | 25.06858 | -81.72708 | 10871 ft | 277 kts | 211° |
| 2026-05-05 14:56 | 25.05149 | -81.73667 | 10510 ft | 274 kts | 210° |
| 2026-05-05 14:56 | 25.03463 | -81.74605 | 10349 ft | 264 kts | 211° |
| 2026-05-05 14:56 | 25.01852 | -81.75523 | 10274 ft | 259 kts | 211° |
| 2026-05-05 14:57 | 25.00261 | -81.76414 | 10188 ft | 255 kts | 210° |
| 2026-05-05 14:57 | 24.98678 | -81.77305 | 10044 ft | 255 kts | 211° |
| 2026-05-05 14:57 | 24.97138 | -81.78176 | 10039 ft | 249 kts | 210° |
| 2026-05-05 14:57 | 24.95597 | -81.79035 | 10046 ft | 248 kts | 211° |
| 2026-05-05 14:58 | 24.94033 | -81.79924 | 9705 ft | 261 kts | 211° |
| 2026-05-05 14:58 | 24.92380 | -81.80853 | 9235 ft | 272 kts | 210° |
| 2026-05-05 14:58 | 24.90672 | -81.81805 | 8773 ft | 277 kts | 210° |
| 2026-05-05 14:58 | 24.88953 | -81.82779 | 8389 ft | 275 kts | 210° |
| 2026-05-05 14:59 | 24.87288 | -81.83706 | 8033 ft | 262 kts | 210° |
| 2026-05-05 14:59 | 24.85791 | -81.84540 | 7710 ft | 251 kts | 210° |
| 2026-05-05 14:59 | 24.84271 | -81.85405 | 7389 ft | 241 kts | 210° |
| 2026-05-05 14:59 | 24.82792 | -81.86228 | 7073 ft | 234 kts | 210° |
| 2026-05-05 15:00 | 24.81363 | -81.87032 | 6769 ft | 228 kts | 211° |
| 2026-05-05 15:00 | 24.80436 | -81.87555 | 6571 ft | 224 kts | 210° |
| 2026-05-05 15:00 | 24.78600 | -81.88579 | 6170 ft | 218 kts | 211° |
| 2026-05-05 15:00 | 24.77258 | -81.89337 | 5880 ft | 217 kts | 210° |
| 2026-05-05 15:01 | 24.75920 | -81.90081 | 5601 ft | 219 kts | 210° |
| 2026-05-05 15:01 | 24.74562 | -81.90841 | 5313 ft | 221 kts | 210° |
| 2026-05-05 15:01 | 24.73182 | -81.91622 | 5025 ft | 225 kts | 210° |
| 2026-05-05 15:01 | 24.71772 | -81.92407 | 4723 ft | 227 kts | 210° |
| 2026-05-05 15:02 | 24.70368 | -81.93195 | 4417 ft | 226 kts | 210° |
| 2026-05-05 15:02 | 24.68968 | -81.93977 | 4112 ft | 225 kts | 209° |
| 2026-05-05 15:02 | 24.67573 | -81.94756 | 3817 ft | 225 kts | 209° |
| 2026-05-05 15:02 | 24.66178 | -81.95541 | 3517 ft | 225 kts | 209° |
| 2026-05-05 15:03 | 24.64778 | -81.96318 | 3221 ft | 225 kts | 209° |
| 2026-05-05 15:03 | 24.63316 | -81.96912 | 2902 ft | 227 kts | 186° |
| 2026-05-05 15:03 | 24.61745 | -81.96857 | 2625 ft | 224 kts | 179° |
| 2026-05-05 15:03 | 24.60196 | -81.96837 | 2321 ft | 221 kts | 182° |
| 2026-05-05 15:04 | 24.58668 | -81.96841 | 2032 ft | 219 kts | 180° |
| 2026-05-05 15:04 | 24.57174 | -81.96711 | 1743 ft | 218 kts | 164° |
| 2026-05-05 15:04 | 24.55981 | -81.95777 | 1558 ft | 209 kts | 126° |
| 2026-05-05 15:04 | 24.55436 | -81.94379 | 1516 ft | 194 kts | 94° |
| 2026-05-05 15:05 | 24.55440 | -81.91603 | 1508 ft | 173 kts | 89° |
| 2026-05-05 15:05 | 24.55460 | -81.90318 | 1507 ft | 163 kts | 87° |
| 2026-05-05 15:05 | 24.55477 | -81.89100 | 1502 ft | 156 kts | 88° |
| 2026-05-05 15:06 | 24.55486 | -81.87979 | 1570 ft | 142 kts | 86° |
| 2026-05-05 15:06 | 24.55504 | -81.86872 | 1534 ft | 146 kts | 87° |
| 2026-05-05 15:06 | 24.55515 | -81.85750 | 1531 ft | 147 kts | 87° |
| 2026-05-05 15:06 | 24.55527 | -81.84599 | 1400 ft | 153 kts | 87° |
| 2026-05-05 15:07 | 24.55537 | -81.83454 | 1216 ft | 140 kts | 88° |
| 2026-05-05 15:07 | 24.55546 | -81.82441 | 1034 ft | 129 kts | 88° |
| 2026-05-05 15:07 | 24.55555 | -81.81785 | 921 ft | 124 kts | 86° |
| 2026-05-05 15:07 | 24.55565 | -81.80598 | 728 ft | 114 kts | 86° |
| 2026-05-05 15:08 | 24.55575 | -81.80002 | 620 ft | 115 kts | 87° |
| 2026-05-05 15:08 | 24.55587 | -81.79125 | 459 ft | 112 kts | 86° |
| 2026-05-05 15:08 | 24.55597 | -81.78301 | 263 ft | 105 kts | 87° |
| 2026-05-05 15:08 | 24.55598 | -81.77524 | 139 ft | 102 kts | 89° |
| 2026-05-05 15:09 | 24.55604 | -81.76740 | 37 ft | 101 kts | 89° |
| 2026-05-05 15:09 | 24.55610 | -81.76055 | 6 ft | 79 kts | 90° |
| 2026-05-05 15:09 | 24.55616 | -81.75647 | 6 ft | 25 kts | 88° |
| 2026-05-05 15:09 | 24.55542 | -81.75598 | 5 ft | 10 kts | 211° |
| 2026-05-05 15:10 | 24.55524 | -81.75671 | 4 ft | 10 kts | 235° |
| 2026-05-05 15:10 | 24.55456 | -81.75688 | 4 ft | 10 kts | 191° |
| 2026-05-05 15:10 | 24.55427 | -81.75675 | 4 ft | 0 kts | 90° |